createdAt,value
2018-01-25T00:01:41.153Z,100092.37
2018-01-25T00:04:08.693Z,100089.00
2018-01-25T00:06:36.245Z,100101.14
2018-01-25T00:09:03.745Z,100094.27
2018-01-25T00:11:31.297Z,100090.15
2018-01-25T00:13:58.794Z,100094.89
2018-01-25T00:16:26.321Z,100086.44
2018-01-25T00:18:53.913Z,100088.41
2018-01-25T00:21:21.427Z,100080.69
2018-01-25T00:23:48.928Z,100082.42
2018-01-25T00:26:16.470Z,100087.97
2018-01-25T00:28:44.003Z,100088.03
2018-01-25T00:31:11.493Z,100090.08
2018-01-25T00:33:39.038Z,100095.73
2018-01-25T00:36:06.529Z,100097.78
2018-01-25T00:38:34.041Z,100106.41
2018-01-25T00:41:01.588Z,100106.68
2018-01-25T00:43:29.100Z,100098.57
2018-01-25T00:45:56.597Z,100107.06
2018-01-25T00:48:24.129Z,100106.75
2018-01-25T00:50:51.648Z,100107.72
2018-01-25T00:53:19.446Z,100104.77
2018-01-25T00:55:46.994Z,100095.69
2018-01-25T00:58:14.549Z,100095.52
2018-01-25T01:00:42.155Z,100102.66
2018-01-25T01:03:09.706Z,100101.34
2018-01-25T01:05:37.249Z,100099.13
2018-01-25T01:08:04.756Z,100091.02
2018-01-25T01:10:32.264Z,100092.64
2018-01-25T01:12:59.774Z,100094.03
2018-01-25T01:15:27.349Z,100094.93
2018-01-25T01:17:54.833Z,100095.31
2018-01-25T01:20:22.321Z,100104.91
2018-01-25T01:22:49.885Z,100110.05
2018-01-25T01:25:17.406Z,100113.55
2018-01-25T01:27:44.924Z,100107.66
2018-01-25T01:30:12.448Z,100117.91
2018-01-25T01:32:39.968Z,100107.55
2018-01-25T01:35:07.482Z,100104.95
2018-01-25T01:37:34.997Z,100101.66
2018-01-25T01:40:02.600Z,100096.80
2018-01-25T01:42:30.113Z,100100.58
2018-01-25T01:44:57.644Z,100109.25
2018-01-25T01:47:25.229Z,100113.23
2018-01-25T01:49:53.401Z,100107.38
2018-01-25T01:52:20.922Z,100113.89
2018-01-25T01:54:48.434Z,100113.72
2018-01-25T01:57:16.006Z,100106.13
2018-01-25T01:59:43.515Z,100105.64
2018-01-25T02:02:11.081Z,100100.52
2018-01-25T02:04:38.596Z,100085.98
2018-01-25T02:07:06.111Z,100088.87
2018-01-25T02:09:33.627Z,100086.78
2018-01-25T02:12:01.132Z,100084.22
2018-01-25T02:14:28.637Z,100094.89
2018-01-25T02:16:56.235Z,100091.50
2018-01-25T02:19:23.736Z,100089.97
2018-01-25T02:21:51.231Z,100098.91
2018-01-25T02:24:20.221Z,100094.30
2018-01-25T02:26:48.141Z,100093.30
2018-01-25T02:29:15.720Z,100092.16
2018-01-25T02:31:43.247Z,100088.69
2018-01-25T02:34:10.768Z,100104.21
2018-01-25T02:36:38.273Z,100099.98
2018-01-25T02:39:05.811Z,100112.05
2018-01-25T02:41:33.284Z,100107.47
2018-01-25T02:44:00.822Z,100113.78
2018-01-25T02:46:28.307Z,100104.08
2018-01-25T02:48:55.869Z,100103.91
2018-01-25T02:51:23.425Z,100101.99
2018-01-25T02:53:50.985Z,100111.22
2018-01-25T02:56:18.524Z,100102.80
2018-01-25T02:58:46.071Z,100104.04
2018-01-25T03:01:13.577Z,100104.63
2018-01-25T03:03:41.074Z,100099.53
2018-01-25T03:06:08.591Z,100102.41
2018-01-25T03:08:36.137Z,100102.34
2018-01-25T03:11:03.692Z,100103.66
2018-01-25T03:13:31.219Z,100107.47
2018-01-25T03:15:58.719Z,100112.98
2018-01-25T03:18:26.268Z,100113.81
2018-01-25T03:20:53.798Z,100111.50
2018-01-25T03:23:21.381Z,100122.20
2018-01-25T03:25:48.866Z,100112.27
2018-01-25T03:28:16.364Z,100120.06
2018-01-25T03:30:43.873Z,100141.00
2018-01-25T03:33:11.394Z,100157.73
2018-01-25T03:35:38.951Z,100176.36
2018-01-25T03:38:06.462Z,100189.13
2018-01-25T03:40:33.978Z,100199.22
2018-01-25T03:43:01.474Z,100212.46
2018-01-25T03:45:29.034Z,100217.08
2018-01-25T03:47:56.588Z,100220.89
2018-01-25T03:50:24.082Z,100227.58
2018-01-25T03:52:51.569Z,100235.59
2018-01-25T03:55:19.095Z,100245.00
2018-01-25T03:57:46.605Z,100243.50
2018-01-25T04:00:14.139Z,100244.32
2018-01-25T04:02:41.633Z,100248.52
2018-01-25T04:05:09.180Z,100254.30
2018-01-25T04:07:36.699Z,100252.10
2018-01-25T04:10:04.246Z,100261.32
2018-01-25T04:12:34.973Z,100265.48
2018-01-25T04:15:02.500Z,100252.02
2018-01-25T04:17:30.005Z,100259.55
2018-01-25T04:19:57.511Z,100260.36
2018-01-25T04:22:25.010Z,100264.38
2018-01-25T04:24:52.513Z,100263.97
2018-01-25T04:27:19.996Z,100271.67
2018-01-25T04:29:47.584Z,100277.28
2018-01-25T04:32:15.108Z,100281.91
2018-01-25T04:34:42.606Z,100275.14
2018-01-25T04:37:10.445Z,100284.11
2018-01-25T04:39:38.000Z,100284.28
2018-01-25T04:42:05.503Z,100286.38
2018-01-25T04:44:33.026Z,100293.91
2018-01-25T04:47:00.543Z,100292.81
2018-01-25T04:49:28.162Z,100295.73
2018-01-25T04:51:55.723Z,100291.67
2018-01-25T04:54:23.217Z,100290.75
2018-01-25T04:56:50.717Z,100289.14
2018-01-25T04:59:18.220Z,100290.88
2018-01-25T05:01:45.798Z,100296.02
2018-01-25T05:04:13.271Z,100297.31
2018-01-25T05:06:40.788Z,100295.59
2018-01-25T05:09:08.265Z,100304.92
2018-01-25T05:11:35.782Z,100306.38
2018-01-25T05:14:03.308Z,100302.98
2018-01-25T05:16:30.837Z,100317.03
2018-01-25T05:18:58.349Z,100306.78
2018-01-25T05:21:25.832Z,100304.72
2018-01-25T05:23:53.430Z,100317.55
2018-01-25T05:26:21.016Z,100320.50
2018-01-25T05:28:48.497Z,100317.56
2018-01-25T05:31:16.041Z,100320.98
2018-01-25T05:33:43.560Z,100320.08
2018-01-25T05:36:11.094Z,100322.20
2018-01-25T05:38:38.593Z,100326.42
2018-01-25T05:41:06.104Z,100334.98
2018-01-25T05:43:33.620Z,100337.11
2018-01-25T05:46:01.156Z,100332.01
2018-01-25T05:48:28.735Z,100331.63
2018-01-25T05:50:56.302Z,100333.71
2018-01-25T05:53:23.813Z,100323.97
2018-01-25T05:55:51.368Z,100332.44
2018-01-25T05:58:18.920Z,100337.58
2018-01-25T06:00:46.437Z,100335.84
2018-01-25T06:03:13.949Z,100344.88
2018-01-25T06:05:41.448Z,100346.91
2018-01-25T06:08:08.954Z,100358.87
2018-01-25T06:10:49.735Z,100352.91
2018-01-25T06:13:17.332Z,100354.69
2018-01-25T06:15:44.898Z,100363.62
2018-01-25T06:18:13.417Z,100365.27
2018-01-25T06:20:41.010Z,100367.02
2018-01-25T06:23:08.593Z,100367.05
2018-01-25T06:25:36.093Z,100360.62
2018-01-25T06:28:03.613Z,100349.59
2018-01-25T06:30:31.176Z,100364.59
2018-01-25T06:32:58.695Z,100376.92
2018-01-25T06:35:26.246Z,100383.73
2018-01-25T06:37:53.762Z,100373.11
2018-01-25T06:40:21.433Z,100376.53
2018-01-25T06:42:48.987Z,100379.48
2018-01-25T06:45:16.507Z,100381.19
2018-01-25T06:47:44.032Z,100379.07
2018-01-25T06:50:11.562Z,100371.02
2018-01-25T06:52:39.093Z,100367.16
2018-01-25T06:55:06.645Z,100375.69
2018-01-25T06:57:34.157Z,100367.77
2018-01-25T07:00:01.728Z,100394.09
2018-01-25T07:02:29.250Z,100391.62
2018-01-25T07:04:56.769Z,100393.33
2018-01-25T07:07:24.404Z,100386.61
2018-01-25T07:09:51.908Z,100385.27
2018-01-25T07:12:19.439Z,100402.28
2018-01-25T07:14:46.986Z,100407.39
2018-01-25T07:17:14.497Z,100406.53
2018-01-25T07:19:42.004Z,100427.80
2018-01-25T07:22:09.525Z,100427.78
2018-01-25T07:24:37.030Z,100417.59
2018-01-25T07:27:05.376Z,100428.31
2018-01-25T07:29:32.858Z,100427.50
2018-01-25T07:32:00.350Z,100429.12
2018-01-25T07:34:27.867Z,100418.92
2018-01-25T07:36:55.644Z,100417.19
2018-01-25T07:39:23.152Z,100423.19
2018-01-25T07:41:50.754Z,100421.09
2018-01-25T07:44:18.291Z,100431.31
2018-01-25T07:46:45.834Z,100439.38
2018-01-25T07:49:13.319Z,100441.48
2018-01-25T07:51:40.821Z,100428.23
2018-01-25T07:54:08.332Z,100431.72
2018-01-25T07:56:35.888Z,100432.55
2018-01-25T07:59:03.376Z,100425.69
2018-01-25T08:01:30.871Z,100418.45
2018-01-25T08:03:58.384Z,100432.13
2018-01-25T08:06:25.964Z,100426.98
2018-01-25T08:08:53.464Z,100426.06
2018-01-25T08:11:20.964Z,100432.88
2018-01-25T08:13:48.459Z,100438.81
2018-01-25T08:16:21.567Z,100437.97
2018-01-25T08:18:49.090Z,100450.22
2018-01-25T08:21:16.610Z,100457.87
2018-01-25T08:23:44.108Z,100458.24
2018-01-25T08:26:11.627Z,100449.31
2018-01-25T08:28:39.110Z,100436.95
2018-01-25T08:31:06.608Z,100429.70
2018-01-25T08:33:34.101Z,100425.12
2018-01-25T08:36:01.615Z,100419.97
2018-01-25T08:38:29.120Z,100420.37
2018-01-25T08:40:56.674Z,100425.95
2018-01-25T08:43:24.307Z,100424.56
2018-01-25T08:45:51.864Z,100427.04
2018-01-25T08:48:19.475Z,100425.84
2018-01-25T08:52:17.519Z,100435.20
2018-01-25T08:54:45.584Z,100451.83
2018-01-25T08:57:13.108Z,100465.82
2018-01-25T08:59:40.665Z,100459.78
2018-01-25T09:02:08.214Z,100453.41
2018-01-25T09:04:35.731Z,100444.84
2018-01-25T09:07:03.255Z,100449.48
2018-01-25T09:09:30.758Z,100457.25
2018-01-25T09:11:58.313Z,100467.94
2018-01-25T09:14:25.845Z,100467.03
2018-01-25T09:16:53.368Z,100460.59
2018-01-25T09:19:20.896Z,100469.52
2018-01-25T09:21:48.496Z,100476.73
2018-01-25T09:24:16.016Z,100462.19
2018-01-25T09:26:43.490Z,100464.73
2018-01-25T09:29:11.033Z,100454.48
2018-01-25T09:31:38.540Z,100457.77
2018-01-25T09:34:06.052Z,100454.80
2018-01-25T09:36:33.571Z,100462.92
2018-01-25T09:39:01.064Z,100471.39
2018-01-25T09:41:28.605Z,100479.46
2018-01-25T09:43:56.102Z,100476.48
2018-01-25T09:46:23.617Z,100459.08
2018-01-25T09:48:51.207Z,100456.48
2018-01-25T09:51:18.760Z,100467.98
2018-01-25T09:53:46.406Z,100467.93
2018-01-25T09:56:13.902Z,100467.62
2018-01-25T09:58:41.452Z,100472.59
2018-01-25T10:01:08.926Z,100465.02
2018-01-25T10:03:36.461Z,100462.73
2018-01-25T10:06:04.057Z,100457.55
2018-01-25T10:08:31.554Z,100457.83
2018-01-25T10:10:59.157Z,100465.56
2018-01-25T10:13:26.736Z,100477.05
2018-01-25T10:15:54.304Z,100475.03
2018-01-25T10:18:21.967Z,100482.00
2018-01-25T10:20:49.609Z,100475.52
2018-01-25T10:23:17.113Z,100475.49
2018-01-25T10:25:44.669Z,100471.52
2018-01-25T10:28:12.225Z,100480.45
2018-01-25T10:30:39.730Z,100475.69
2018-01-25T10:33:07.295Z,100465.95
2018-01-25T10:35:34.837Z,100471.84
2018-01-25T10:38:02.356Z,100464.69
2018-01-25T10:40:29.918Z,100470.48
2018-01-25T10:42:57.443Z,100472.33
2018-01-25T10:45:24.942Z,100471.63
2018-01-25T10:47:52.459Z,100463.36
2018-01-25T10:50:19.953Z,100461.14
2018-01-25T10:52:47.477Z,100459.03
2018-01-25T10:55:14.994Z,100461.08
2018-01-25T10:57:42.546Z,100461.52
2018-01-25T11:00:10.031Z,100461.54
2018-01-25T11:02:37.649Z,100459.91
2018-01-25T11:05:05.173Z,100465.78
2018-01-25T11:07:32.719Z,100462.00
2018-01-25T11:10:00.258Z,100461.46
2018-01-25T11:12:27.814Z,100458.91
2018-01-25T11:14:55.388Z,100450.77
2018-01-25T11:17:22.918Z,100446.64
2018-01-25T11:19:50.433Z,100454.19
2018-01-25T11:22:18.051Z,100445.59
2018-01-25T11:24:45.650Z,100445.09
2018-01-25T11:27:13.144Z,100445.50
2018-01-25T11:29:40.646Z,100446.72
2018-01-25T11:32:08.170Z,100448.86
2018-01-25T11:34:35.783Z,100447.52
2018-01-25T11:37:03.381Z,100445.38
2018-01-25T11:39:30.916Z,100441.97
2018-01-25T11:41:58.458Z,100436.87
2018-01-25T11:44:25.981Z,100444.96
2018-01-25T11:46:53.515Z,100448.09
2018-01-25T11:49:21.083Z,100444.98
2018-01-25T11:51:48.570Z,100447.59
2018-01-25T11:54:16.120Z,100452.53
2018-01-25T11:56:43.653Z,100449.99
2018-01-25T11:59:11.151Z,100443.61
2018-01-25T12:01:38.750Z,100443.64
2018-01-25T12:04:06.246Z,100444.48
2018-01-25T12:06:33.765Z,100450.87
2018-01-25T12:09:01.312Z,100450.99
2018-01-25T12:11:28.951Z,100442.95
2018-01-25T12:13:59.262Z,100439.06
2018-01-25T12:16:26.817Z,100442.45
2018-01-25T12:18:56.551Z,100441.20
2018-01-25T12:21:24.129Z,100440.29
2018-01-25T12:23:51.698Z,100440.20
2018-01-25T12:26:19.222Z,100440.17
2018-01-25T12:28:46.785Z,100435.50
2018-01-25T12:31:14.308Z,100432.50
2018-01-25T12:33:41.877Z,100429.06
2018-01-25T12:36:09.473Z,100429.89
2018-01-25T12:38:36.992Z,100421.87
2018-01-25T12:41:04.469Z,100427.09
2018-01-25T12:43:31.980Z,100421.91
2018-01-25T12:45:59.531Z,100419.09
2018-01-25T12:48:27.075Z,100422.52
2018-01-25T12:50:54.601Z,100422.50
2018-01-25T12:53:22.189Z,100419.87
2018-01-25T12:55:49.698Z,100413.62
2018-01-25T12:58:17.254Z,100413.97
2018-01-25T13:00:44.908Z,100403.25
2018-01-25T13:03:12.446Z,100393.80
2018-01-25T13:05:40.064Z,100396.74
2018-01-25T13:08:07.646Z,100397.98
2018-01-25T13:10:35.384Z,100399.05
2018-01-25T13:13:02.959Z,100398.52
2018-01-25T13:15:30.527Z,100394.17
2018-01-25T13:17:58.118Z,100397.30
2018-01-25T13:20:25.632Z,100401.52
2018-01-25T13:22:53.200Z,100396.44
2018-01-25T13:25:20.725Z,100396.88
2018-01-25T13:27:48.354Z,100393.89
2018-01-25T13:30:15.932Z,100387.49
2018-01-25T13:32:43.516Z,100394.63
2018-01-25T13:35:11.028Z,100389.05
2018-01-25T13:37:38.576Z,100392.47
2018-01-25T13:40:06.137Z,100401.86
2018-01-25T13:42:33.764Z,100389.50
2018-01-25T13:45:01.280Z,100385.72
2018-01-25T13:47:28.850Z,100383.74
2018-01-25T13:49:56.366Z,100380.78
2018-01-25T13:52:29.506Z,100377.62
2018-01-25T13:54:57.185Z,100372.98
2018-01-25T13:57:24.705Z,100366.59
2018-01-25T13:59:52.294Z,100361.63
2018-01-25T14:02:19.843Z,100370.04
2018-01-25T14:04:47.448Z,100374.22
2018-01-25T14:07:15.031Z,100374.38
2018-01-25T14:09:42.604Z,100374.24
2018-01-25T14:12:10.114Z,100367.84
2018-01-25T14:14:37.851Z,100373.77
2018-01-25T14:17:05.543Z,100369.16
2018-01-25T14:19:33.443Z,100371.78
2018-01-25T14:22:00.974Z,100377.30
2018-01-25T14:24:28.476Z,100379.88
2018-01-25T14:26:56.104Z,100385.34
2018-01-25T14:29:23.602Z,100381.59
2018-01-25T14:31:51.122Z,100383.74
2018-01-25T14:34:18.726Z,100388.03
2018-01-25T14:36:46.245Z,100383.81
2018-01-25T14:39:13.907Z,100385.09
2018-01-25T14:41:41.487Z,100389.80
2018-01-25T14:44:09.008Z,100388.48
2018-01-25T14:46:36.510Z,100389.23
2018-01-25T14:49:04.017Z,100393.50
2018-01-25T14:51:31.766Z,100388.42
2018-01-25T14:53:59.303Z,100392.23
2018-01-25T14:56:26.841Z,100396.16
2018-01-25T14:58:54.498Z,100393.13
2018-01-25T15:01:22.056Z,100395.20
2018-01-25T15:03:49.595Z,100389.68
2018-01-25T15:06:17.137Z,100388.05
2018-01-25T15:08:44.638Z,100388.09
2018-01-25T15:11:12.193Z,100386.77
2018-01-25T15:13:39.707Z,100390.56
2018-01-25T15:16:07.187Z,100387.53
2018-01-25T15:18:34.770Z,100387.19
2018-01-25T15:21:02.262Z,100385.97
2018-01-25T15:23:29.817Z,100389.74
2018-01-25T15:25:59.912Z,100378.67
2018-01-25T15:28:27.401Z,100382.94
2018-01-25T15:30:54.959Z,100376.31
2018-01-25T15:33:22.485Z,100376.39
2018-01-25T15:35:49.981Z,100373.81
2018-01-25T15:38:17.513Z,100374.75
2018-01-25T15:40:45.132Z,100378.77
2018-01-25T15:43:12.642Z,100383.89
2018-01-25T15:45:40.220Z,100383.94
2018-01-25T15:48:07.725Z,100373.30
2018-01-25T15:50:35.229Z,100370.23
2018-01-25T15:53:02.809Z,100378.30
2018-01-25T15:55:30.340Z,100378.31
2018-01-25T15:57:57.862Z,100383.03
2018-01-25T16:00:25.375Z,100384.31
2018-01-25T16:02:52.899Z,100383.44
2018-01-25T16:05:20.409Z,100381.70
2018-01-25T16:07:47.901Z,100383.81
2018-01-25T16:10:15.455Z,100389.30
2018-01-25T16:12:43.024Z,100380.38
2018-01-25T16:15:13.924Z,100380.83
2018-01-25T16:17:41.552Z,100388.53
2018-01-25T16:20:09.076Z,100385.09
2018-01-25T16:22:36.581Z,100389.41
2018-01-25T16:25:04.120Z,100397.92
2018-01-25T16:27:32.159Z,100397.05
2018-01-25T16:29:59.706Z,100398.80
2018-01-25T16:32:27.224Z,100395.41
2018-01-25T16:34:54.710Z,100399.66
2018-01-25T16:37:22.197Z,100399.22
2018-01-25T16:39:49.824Z,100393.72
2018-01-25T16:42:17.340Z,100392.02
2018-01-25T16:44:44.887Z,100395.01
2018-01-25T16:47:12.373Z,100396.36
2018-01-25T16:49:39.937Z,100396.36
2018-01-25T16:52:07.500Z,100403.62
2018-01-25T16:54:35.063Z,100403.59
2018-01-25T16:57:02.582Z,100399.44
2018-01-25T16:59:30.128Z,100392.22
2018-01-25T17:01:57.625Z,100404.13
2018-01-25T17:04:25.146Z,100399.96
2018-01-25T17:06:52.811Z,100401.27
2018-01-25T17:09:20.342Z,100397.84
2018-01-25T17:11:47.939Z,100400.03
2018-01-25T17:14:15.729Z,100404.72
2018-01-25T17:16:43.275Z,100407.66
2018-01-25T17:19:10.787Z,100413.66
2018-01-25T17:21:38.307Z,100408.12
2018-01-25T17:24:05.797Z,100400.92
2018-01-25T17:26:33.272Z,100398.79
2018-01-25T17:29:00.758Z,100411.13
2018-01-25T17:31:28.249Z,100415.87
2018-01-25T17:33:56.071Z,100423.16
2018-01-25T17:36:23.835Z,100419.31
2018-01-25T17:38:52.136Z,100421.41
2018-01-25T17:41:19.658Z,100425.73
2018-01-25T17:43:47.393Z,100420.16
2018-01-25T17:46:15.361Z,100421.04
2018-01-25T17:48:43.124Z,100432.53
2018-01-25T17:51:10.857Z,100428.70
2018-01-25T17:53:38.561Z,100429.11
2018-01-25T17:56:06.116Z,100438.52
2018-01-25T17:58:33.658Z,100435.91
2018-01-25T18:01:01.298Z,100435.42
2018-01-25T18:03:28.952Z,100436.24
2018-01-25T18:05:56.462Z,100432.84
2018-01-25T18:08:25.903Z,100440.55
2018-01-25T18:10:55.077Z,100448.67
2018-01-25T18:13:23.985Z,100443.12
2018-01-25T18:15:55.619Z,100442.69
2018-01-25T18:18:25.378Z,100439.70
2018-01-25T18:20:55.249Z,100440.14
2018-01-25T18:23:23.044Z,100441.48
2018-01-25T18:25:50.610Z,100438.89
2018-01-25T18:28:18.501Z,100442.38
2018-01-25T18:30:46.017Z,100441.02
2018-01-25T18:33:14.891Z,100442.72
2018-01-25T18:35:42.588Z,100450.02
2018-01-25T18:38:14.870Z,100442.77
2018-01-25T18:40:47.196Z,100442.00
2018-01-25T18:43:18.001Z,100441.99
2018-01-25T18:45:48.632Z,100442.46
2018-01-25T18:48:17.248Z,100437.34
2018-01-25T18:50:44.863Z,100437.82
2018-01-25T18:53:12.359Z,100436.57
2018-01-25T18:55:41.443Z,100433.64
2018-01-25T18:58:10.595Z,100440.03
2018-01-25T19:00:40.263Z,100444.73
2018-01-25T19:03:09.147Z,100442.12
2018-01-25T19:05:38.196Z,100437.52
2018-01-25T19:08:11.307Z,100440.13
2018-01-25T19:10:40.433Z,100438.81
2018-01-25T19:13:08.293Z,100446.47
2018-01-25T19:15:36.222Z,100445.23
2018-01-25T19:18:05.885Z,100443.50
2018-01-25T19:20:33.756Z,100441.38
2018-01-25T19:23:05.499Z,100443.92
2018-01-25T19:25:34.391Z,100441.37
2018-01-25T19:28:02.116Z,100438.46
2018-01-25T19:30:30.327Z,100449.11
2018-01-25T19:32:57.937Z,100447.89
2018-01-25T19:35:25.725Z,100440.69
2018-01-25T19:37:53.401Z,100441.11
2018-01-25T19:40:20.988Z,100444.53
2018-01-25T19:42:48.533Z,100436.47
2018-01-25T19:45:17.043Z,100433.06
2018-01-25T19:47:46.456Z,100440.69
2018-01-25T19:50:17.172Z,100441.13
2018-01-25T19:52:44.785Z,100435.59
2018-01-25T19:55:25.823Z,100438.13
2018-01-25T19:57:53.431Z,100437.36
2018-01-25T20:00:21.919Z,100433.58
2018-01-25T20:02:49.700Z,100430.64
2018-01-25T20:05:17.274Z,100431.06
2018-01-25T20:07:45.417Z,100431.50
2018-01-25T20:10:13.059Z,100427.68
2018-01-25T20:12:43.785Z,100435.78
2018-01-25T20:15:13.221Z,100436.23
2018-01-25T20:17:40.718Z,100437.95
2018-01-25T20:20:08.238Z,100428.61
2018-01-25T20:22:35.753Z,100431.60
2018-01-25T20:25:03.255Z,100429.09
2018-01-25T20:27:30.742Z,100436.33
2018-01-25T20:29:58.262Z,100435.05
2018-01-25T20:32:25.763Z,100432.09
2018-01-25T20:34:53.362Z,100435.89
2018-01-25T20:37:20.940Z,100435.48
2018-01-25T20:39:48.452Z,100432.09
2018-01-25T20:42:15.988Z,100435.09
2018-01-25T20:44:43.518Z,100432.97
2018-01-25T20:47:11.022Z,100440.20
2018-01-25T20:49:38.544Z,100433.39
2018-01-25T20:52:06.044Z,100437.66
2018-01-25T20:54:33.581Z,100442.33
2018-01-25T20:57:01.103Z,100447.84
2018-01-25T20:59:28.923Z,100449.56
2018-01-25T21:01:56.452Z,100447.88
2018-01-25T21:04:24.184Z,100448.70
2018-01-25T21:06:51.859Z,100446.98
2018-01-25T21:09:19.550Z,100447.41
2018-01-25T21:11:47.174Z,100455.47
2018-01-25T21:14:14.808Z,100451.66
2018-01-25T21:16:42.309Z,100449.12
2018-01-25T21:19:09.871Z,100455.92
2018-01-25T21:21:37.564Z,100461.88
2018-01-25T21:24:06.021Z,100455.09
2018-01-25T21:26:33.661Z,100456.37
2018-01-25T21:29:01.192Z,100453.44
2018-01-25T21:31:28.922Z,100455.09
2018-01-25T21:33:56.479Z,100456.81
2018-01-25T21:36:24.234Z,100459.83
2018-01-25T21:38:52.793Z,100455.59
2018-01-25T21:41:20.317Z,100458.53
2018-01-25T21:43:47.868Z,100453.44
2018-01-25T21:46:15.405Z,100457.31
2018-01-25T21:48:42.934Z,100460.70
2018-01-25T21:51:10.438Z,100456.84
2018-01-25T21:53:37.948Z,100457.72
2018-01-25T21:56:05.477Z,100471.70
2018-01-25T21:58:33.054Z,100467.45
2018-01-25T22:01:00.604Z,100470.86
2018-01-25T22:03:28.123Z,100473.45
2018-01-25T22:05:55.751Z,100471.75
2018-01-25T22:08:23.250Z,100467.92
2018-01-25T22:10:50.759Z,100466.67
2018-01-25T22:13:18.284Z,100465.86
2018-01-25T22:15:45.831Z,100476.01
2018-01-25T22:18:14.117Z,100469.64
2018-01-25T22:20:41.660Z,100473.45
2018-01-25T22:23:09.157Z,100478.98
2018-01-25T22:25:36.663Z,100478.13
2018-01-25T22:28:04.164Z,100477.31
2018-01-25T22:30:32.454Z,100476.45
2018-01-25T22:32:59.985Z,100477.32
2018-01-25T22:35:27.568Z,100470.95
2018-01-25T22:37:55.058Z,100472.23
2018-01-25T22:40:22.601Z,100475.62
2018-01-25T22:42:50.113Z,100477.34
2018-01-25T22:45:17.647Z,100477.73
2018-01-25T22:47:45.170Z,100475.22
2018-01-25T22:50:13.276Z,100483.69
2018-01-25T22:52:40.769Z,100470.53
2018-01-25T22:55:09.514Z,100478.16
2018-01-25T22:57:37.036Z,100472.66
2018-01-25T23:00:04.542Z,100476.47
2018-01-25T23:02:32.060Z,100482.84
2018-01-25T23:04:59.570Z,100486.24
2018-01-25T23:07:27.081Z,100479.46
2018-01-25T23:09:54.652Z,100482.45
2018-01-25T23:12:22.154Z,100480.72
2018-01-25T23:14:49.652Z,100478.20
2018-01-25T23:17:17.203Z,100480.73
2018-01-25T23:19:44.745Z,100481.20
2018-01-25T23:22:12.233Z,100481.19
2018-01-25T23:24:39.787Z,100482.88
2018-01-25T23:27:07.304Z,100486.28
2018-01-25T23:29:34.844Z,100481.17
2018-01-25T23:32:02.342Z,100481.19
2018-01-25T23:34:29.837Z,100479.48
2018-01-25T23:36:57.340Z,100482.47
2018-01-25T23:39:24.836Z,100484.59
2018-01-25T23:41:52.373Z,100487.13
2018-01-25T23:44:19.917Z,100482.48
2018-01-25T23:46:47.442Z,100484.59
2018-01-25T23:49:14.980Z,100481.60
2018-01-25T23:51:42.548Z,100482.45
2018-01-25T23:54:10.082Z,100477.39
2018-01-25T23:56:37.659Z,100481.62
2018-01-25T23:59:05.179Z,100478.65
